KPSX

Palacios Municipal Airport

Palacios, Texas, USA
METAR KPSX 191053Z AUTO 00000KT 10SM SCT021 26/24 A2994 RMK AO2 SLP138 T02560244
Observed Flight Rules
Sep-19 @ 10:53 UTC (13 minutes ago) Visual Flight Rules
Visibility Clouds
10 miles
  • Scattered at 2,100' AGL
Temperatures Readings
Current 26°C / 79°F
Dewpoint 24°C / 75°F
Humidity 89%
Altimeter 29.94" Hg
Pressure 1013.8 hPa
Elevation 5
METAR KPSX 191053Z AUTO 00000KT 10SM SCT021 26/24 A2994 RMK AO2 SLP138 T02560244
Observed Flight Rules
Sep-19 @ 10:53 UTC
(13 minutes ago)
VFR
Clouds
  • Scattered at 2,100' AGL
Temperature Dewpoint
26°C / 79°F 24°C / 75°F
Humidity Altimeter Pressure
89% 29.94" Hg 1013.8 hPa